Time;durP1;ratioP1;P1;durP2;ratioP2;P2;SDS_P1;SDS_P2;PMS_P1;PMS_P2;Temp;Humidity;BMP_temperature;BMP_pressure;BME280_temperature;BME280_humidity;BME280_pressure;Samples;Min_cycle;Max_cycle;Signal;HPM_P1;HPM_P2
2022/01/30 00:00:08;;;;;;;12.73;3.40;;;;;;;;;;5065354;28;20744;-73
2022/01/30 00:02:38;;;;;;;23.63;4.50;;;;;;;;;;5068000;28;20470;-73
2022/01/30 00:05:09;;;;;;;4.03;2.20;;;;;;;;;;5077125;28;20468;-72
2022/01/30 00:07:37;;;;;;;11.07;2.80;;;;;;;;;;5074488;28;21000;-73
2022/01/30 00:10:13;;;;;;;9.87;3.37;;;;;;;;;;5066799;28;20449;-73
2022/01/30 00:12:46;;;;;;;12.30;2.90;;;;;;;;;;5074166;28;20925;-72
2022/01/30 00:15:15;;;;;;;18.60;2.87;;;;;;;;;;5058553;28;20678;-73
2022/01/30 00:17:50;;;;;;;21.23;6.10;;;;;;;;;;5071543;28;20452;-73
2022/01/30 00:20:21;;;;;;;16.50;3.00;;;;;;;;;;5070433;28;20441;-74
2022/01/30 00:22:56;;;;;;;30.50;3.17;;;;;;;;;;5068573;28;20538;-73
2022/01/30 00:25:34;;;;;;;6.60;2.03;;;;;;;;;;5076637;28;20444;-74
2022/01/30 00:28:06;;;;;;;17.43;3.50;;;;;;;;;;5076565;28;20526;-73
2022/01/30 00:30:35;;;;;;;7.93;2.40;;;;;;;;;;5062263;28;20457;-74
2022/01/30 00:33:05;;;;;;;15.13;4.87;;;;;;;;;;5056571;28;20584;-73
2022/01/30 00:35:35;;;;;;;13.63;3.33;;;;;;;;;;5056813;28;20468;-73
2022/01/30 00:38:04;;;;;;;12.50;2.47;;;;;;;;;;5055864;28;20456;-73
2022/01/30 00:40:31;;;;;;;12.57;3.70;;;;;;;;;;5056166;28;20472;-73
2022/01/30 00:42:59;;;;;;;17.77;2.80;;;;;;;;;;5055877;28;20461;-72
2022/01/30 00:45:27;;;;;;;5.40;2.83;;;;;;;;;;5056170;28;20530;-72
2022/01/30 00:47:55;;;;;;;16.47;3.93;;;;;;;;;;5055472;28;20467;-72
2022/01/30 00:50:26;;;;;;;11.37;3.40;;;;;;;;;;5055918;28;20454;-72
2022/01/30 00:52:55;;;;;;;9.73;4.70;;;;;;;;;;5055252;28;20481;-72
2022/01/30 00:55:24;;;;;;;11.60;3.50;;;;;;;;;;5055202;28;20453;-74
2022/01/30 00:57:52;;;;;;;13.30;4.00;;;;;;;;;;5055833;28;20472;-73
2022/01/30 01:00:22;;;;;;;16.70;3.70;;;;;;;;;;5055164;28;20809;-73
2022/01/30 01:02:49;;;;;;;23.00;4.30;;;;;;;;;;5055536;28;20460;-73
2022/01/30 01:05:17;;;;;;;16.47;4.10;;;;;;;;;;5055703;28;20473;-73
2022/01/30 01:07:48;;;;;;;17.00;3.47;;;;;;;;;;5055683;28;20453;-73
2022/01/30 01:10:28;;;;;;;17.57;4.50;;;;;;;;;;5054932;28;20544;-73
2022/01/30 01:13:10;;;;;;;10.73;3.60;;;;;;;;;;5056130;28;20499;-73
2022/01/30 01:23:56;;;;;;;7.67;2.47;;;;;;;;;;5057825;28;20881;-72
2022/01/30 01:26:25;;;;;;;11.93;2.80;;;;;;;;;;5058811;28;20453;-73
2022/01/30 01:28:53;;;;;;;10.90;3.90;;;;;;;;;;5059564;28;20457;-73
2022/01/30 01:31:21;;;;;;;17.77;4.07;;;;;;;;;;5058989;28;20865;-72
2022/01/30 01:34:04;;;;;;;12.90;3.43;;;;;;;;;;5059642;28;20496;-73
2022/01/30 01:36:32;;;;;;;21.00;3.57;;;;;;;;;;5059136;28;20547;-72
2022/01/30 01:39:01;;;;;;;32.60;4.27;;;;;;;;;;5059337;28;20530;-72
2022/01/30 01:41:33;;;;;;;18.40;4.17;;;;;;;;;;5058831;28;20493;-73
2022/01/30 01:44:01;;;;;;;16.03;4.63;;;;;;;;;;5058924;28;20493;-74
2022/01/30 01:46:32;;;;;;;8.17;3.30;;;;;;;;;;5058581;28;20534;-74
2022/01/30 01:49:00;;;;;;;20.40;3.30;;;;;;;;;;5058789;28;20504;-73
2022/01/30 01:51:30;;;;;;;15.33;3.70;;;;;;;;;;5057870;28;20843;-73
2022/01/30 01:53:58;;;;;;;17.23;5.10;;;;;;;;;;5058124;28;20799;-73
2022/01/30 01:56:31;;;;;;;43.50;21.53;;;;;;;;;;5058852;28;20453;-73
2022/01/30 01:58:59;;;;;;;8.37;2.97;;;;;;;;;;5058785;28;20461;-73
2022/01/30 02:01:28;;;;;;;18.47;3.70;;;;;;;;;;5058268;28;20453;-73
2022/01/30 02:03:56;;;;;;;8.63;3.70;;;;;;;;;;5057726;28;20462;-73
2022/01/30 02:06:26;;;;;;;11.97;2.70;;;;;;;;;;5057811;28;20453;-73
2022/01/30 02:08:57;;;;;;;10.37;2.47;;;;;;;;;;5058012;28;20741;-73
2022/01/30 02:11:36;;;;;;;5.80;2.03;;;;;;;;;;5057909;28;20717;-73
2022/01/30 02:25:38;;;;;;;12.47;4.53;;;;;;;;;;5057543;28;20421;-73
2022/01/30 02:28:11;;;;;;;22.67;5.30;;;;;;;;;;5058786;28;20531;-73
2022/01/30 02:30:42;;;;;;;13.60;3.77;;;;;;;;;;5059246;28;20877;-73
2022/01/30 02:33:11;;;;;;;19.70;5.47;;;;;;;;;;5057572;28;20500;-73
2022/01/30 02:35:39;;;;;;;10.57;2.97;;;;;;;;;;5058040;28;20811;-73
2022/01/30 02:38:08;;;;;;;11.20;2.93;;;;;;;;;;5057343;28;20471;-73
2022/01/30 02:40:40;;;;;;;8.50;2.80;;;;;;;;;;5057837;28;20777;-73
2022/01/30 02:43:08;;;;;;;18.23;4.83;;;;;;;;;;5057883;28;20548;-73
2022/01/30 02:45:39;;;;;;;7.90;2.70;;;;;;;;;;5058136;28;20730;-74
2022/01/30 02:48:17;;;;;;;34.77;3.40;;;;;;;;;;5057719;28;20457;-73
2022/01/30 02:51:06;;;;;;;7.30;2.17;;;;;;;;;;5058274;28;20519;-73
2022/01/30 02:53:40;;;;;;;11.30;3.63;;;;;;;;;;5058593;28;20500;-73
2022/01/30 02:56:08;;;;;;;19.10;4.43;;;;;;;;;;5057619;28;20522;-73
2022/01/30 02:58:36;;;;;;;12.97;4.00;;;;;;;;;;5057020;28;20560;-73
2022/01/30 03:01:04;;;;;;;14.53;3.57;;;;;;;;;;5058157;28;20442;-73
2022/01/30 03:03:34;;;;;;;13.53;3.80;;;;;;;;;;5057693;28;20476;-73
2022/01/30 03:06:02;;;;;;;10.67;2.43;;;;;;;;;;5057946;28;20854;-73
2022/01/30 03:08:29;;;;;;;6.03;2.13;;;;;;;;;;5058077;28;20557;-73
2022/01/30 03:10:59;;;;;;;11.70;2.40;;;;;;;;;;5057552;28;20522;-74
2022/01/30 03:13:32;;;;;;;16.97;2.43;;;;;;;;;;5058161;28;20508;-74
2022/01/30 03:16:03;;;;;;;5.30;2.57;;;;;;;;;;5057505;28;20453;-73
2022/01/30 03:18:31;;;;;;;10.50;2.47;;;;;;;;;;5057397;28;20741;-73
2022/01/30 03:20:59;;;;;;;9.90;2.23;;;;;;;;;;5057363;28;20552;-74
2022/01/30 03:23:27;;;;;;;6.17;2.20;;;;;;;;;;5057610;28;20464;-73
2022/01/30 03:25:58;;;;;;;278.07;75.73;;;;;;;;;;5057387;28;20450;-73
2022/01/30 03:28:27;;;;;;;64.50;18.40;;;;;;;;;;5056993;28;20458;-73
2022/01/30 03:30:59;;;;;;;11.63;2.10;;;;;;;;;;5057676;28;20535;-74
2022/01/30 03:33:27;;;;;;;17.33;5.10;;;;;;;;;;5057418;28;20497;-73
2022/01/30 03:35:54;;;;;;;78.80;23.00;;;;;;;;;;5058051;28;20449;-73
2022/01/30 03:38:23;;;;;;;45.47;14.20;;;;;;;;;;5055714;28;20469;-73
2022/01/30 03:40:51;;;;;;;14.63;3.37;;;;;;;;;;5056438;28;20874;-73
2022/01/30 03:43:19;;;;;;;15.20;2.37;;;;;;;;;;5056402;28;20450;-73
2022/01/30 03:45:49;;;;;;;15.33;3.37;;;;;;;;;;5056708;28;20897;-73
2022/01/30 03:48:20;;;;;;;11.63;2.90;;;;;;;;;;5056986;28;20465;-72
2022/01/30 03:50:47;;;;;;;10.53;2.53;;;;;;;;;;5057061;28;20450;-73
2022/01/30 03:53:15;;;;;;;11.40;2.80;;;;;;;;;;5056938;28;20489;-73
2022/01/30 03:55:43;;;;;;;11.00;3.03;;;;;;;;;;5057279;28;20456;-73
2022/01/30 03:58:11;;;;;;;26.90;6.57;;;;;;;;;;5076252;28;20460;-73
2022/01/30 04:00:38;;;;;;;9.23;2.27;;;;;;;;;;5076792;28;20518;-73
2022/01/30 04:03:08;;;;;;;20.13;3.90;;;;;;;;;;5076010;28;20533;-73
2022/01/30 04:05:35;;;;;;;17.07;3.30;;;;;;;;;;5076600;28;20527;-73
2022/01/30 04:08:04;;;;;;;8.67;3.27;;;;;;;;;;5076512;28;20464;-72
2022/01/30 04:10:33;;;;;;;79.97;22.83;;;;;;;;;;5076405;28;20492;-73
2022/01/30 04:13:03;;;;;;;14.53;2.40;;;;;;;;;;5076717;28;20594;-72
2022/01/30 04:15:31;;;;;;;11.57;2.30;;;;;;;;;;5076382;28;20547;-72
2022/01/30 04:18:00;;;;;;;13.87;3.43;;;;;;;;;;5075987;28;20458;-72
2022/01/30 04:20:29;;;;;;;30.60;9.03;;;;;;;;;;5076309;28;20456;-72
2022/01/30 04:22:57;;;;;;;49.20;14.37;;;;;;;;;;5077390;28;20868;-72
2022/01/30 04:25:25;;;;;;;16.43;6.30;;;;;;;;;;5076308;28;20459;-74
2022/01/30 04:27:53;;;;;;;56.77;16.30;;;;;;;;;;5076108;28;20526;-74
2022/01/30 04:30:21;;;;;;;85.50;20.77;;;;;;;;;;5076495;28;20448;-74
2022/01/30 04:32:49;;;;;;;10.80;2.97;;;;;;;;;;5076357;28;20467;-74
2022/01/30 04:35:21;;;;;;;62.13;19.60;;;;;;;;;;5075792;28;20744;-73
2022/01/30 04:38:01;;;;;;;11.33;3.60;;;;;;;;;;5076536;28;20460;-74
2022/01/30 04:41:02;;;;;;;5.40;2.07;;;;;;;;;;5075683;28;20987;-73
2022/01/30 04:52:18;;;;;;;65.37;17.60;;;;;;;;;;5076147;28;21067;-73
2022/01/30 04:57:47;;;;;;;58.37;18.20;;;;;;;;;;5080134;28;20668;-73
2022/01/30 05:00:28;;;;;;;233.05;62.97;;;;;;;;;;5080325;28;20452;-73
2022/01/30 05:03:04;;;;;;;332.73;75.65;;;;;;;;;;5080029;28;20202;-73
2022/01/30 05:05:45;;;;;;;10.33;2.13;;;;;;;;;;5080789;28;20313;-73
2022/01/30 05:08:20;;;;;;;280.00;67.25;;;;;;;;;;5080300;28;20456;-73
2022/01/30 05:10:49;;;;;;;308.40;76.45;;;;;;;;;;5080265;28;20293;-74
2022/01/30 05:13:18;;;;;;;286.38;69.63;;;;;;;;;;5080023;28;20222;-74
2022/01/30 05:15:46;;;;;;;12.30;7.27;;;;;;;;;;5079792;28;20610;-73
2022/01/30 05:18:18;;;;;;;20.97;18.80;;;;;;;;;;5079156;28;20559;-73
2022/01/30 05:20:46;;;;;;;17.33;3.17;;;;;;;;;;5079825;28;20873;-73
2022/01/30 05:23:14;;;;;;;8.87;2.60;;;;;;;;;;5079941;28;20845;-73
2022/01/30 05:25:41;;;;;;;12.80;3.67;;;;;;;;;;5079707;28;20439;-73
2022/01/30 05:28:11;;;;;;;13.13;4.17;;;;;;;;;;5079271;28;20460;-73
2022/01/30 05:30:38;;;;;;;12.83;3.67;;;;;;;;;;5079412;28;20845;-74
2022/01/30 05:33:09;;;;;;;20.53;4.47;;;;;;;;;;5079142;28;20460;-74
2022/01/30 05:35:37;;;;;;;11.17;2.40;;;;;;;;;;5079217;28;20844;-74
2022/01/30 05:38:05;;;;;;;18.00;2.90;;;;;;;;;;5078856;28;20457;-73
2022/01/30 05:40:35;;;;;;;21.53;5.13;;;;;;;;;;5080308;28;20460;-74
2022/01/30 05:43:03;;;;;;;19.07;7.37;;;;;;;;;;5078109;28;20465;-74
2022/01/30 05:45:38;;;;;;;11.70;3.77;;;;;;;;;;5078689;28;20452;-74
2022/01/30 05:48:10;;;;;;;19.43;4.97;;;;;;;;;;5078343;28;20459;-74
2022/01/30 05:50:38;;;;;;;15.70;4.00;;;;;;;;;;5079602;28;20460;-74
2022/01/30 05:53:06;;;;;;;11.23;4.20;;;;;;;;;;5078887;28;20742;-73
2022/01/30 05:55:34;;;;;;;14.03;3.53;;;;;;;;;;5079734;28;20813;-74
2022/01/30 05:58:01;;;;;;;21.60;4.37;;;;;;;;;;5078696;28;20487;-74
2022/01/30 06:00:29;;;;;;;13.50;3.83;;;;;;;;;;5078822;28;20808;-74
2022/01/30 06:03:05;;;;;;;20.73;4.90;;;;;;;;;;5078422;28;20457;-74
2022/01/30 06:05:36;;;;;;;21.80;3.20;;;;;;;;;;5079153;28;20463;-74
2022/01/30 06:08:12;;;;;;;13.80;2.50;;;;;;;;;;5078095;28;20487;-74
2022/01/30 06:10:50;;;;;;;13.35;4.00;;;;;;;;;;5077796;28;20709;-73
2022/01/30 06:13:18;;;;;;;20.50;3.50;;;;;;;;;;5077957;28;20697;-74
2022/01/30 06:15:50;;;;;;;12.87;2.73;;;;;;;;;;5078520;28;20461;-74
2022/01/30 06:18:29;;;;;;;19.80;5.00;;;;;;;;;;5078053;28;20544;-73
2022/01/30 06:24:10;;;;;;;16.90;4.20;;;;;;;;;;5077002;28;20725;-74
2022/01/30 06:26:43;;;;;;;29.30;16.75;;;;;;;;;;5077418;28;20437;-74
2022/01/30 06:29:15;;;;;;;11.03;3.53;;;;;;;;;;5078181;28;20295;-74
2022/01/30 06:31:43;;;;;;;33.67;12.65;;;;;;;;;;5077108;28;20441;-74
2022/01/30 06:34:18;;;;;;;13.00;4.70;;;;;;;;;;5076860;28;20449;-74
2022/01/30 06:36:49;;;;;;;14.50;4.43;;;;;;;;;;5078544;28;20459;-74
2022/01/30 06:39:33;;;;;;;50.35;23.23;;;;;;;;;;5076530;28;20835;-73
2022/01/30 06:42:04;;;;;;;273.15;81.70;;;;;;;;;;5076406;28;20441;-73
2022/01/30 06:44:32;;;;;;;82.10;24.67;;;;;;;;;;5077356;28;20460;-74
2022/01/30 06:47:08;;;;;;;11.43;3.47;;;;;;;;;;5078110;28;20206;-74
2022/01/30 06:49:38;;;;;;;67.10;41.28;;;;;;;;;;5076564;28;20429;-74
2022/01/30 06:52:24;;;;;;;23.57;4.27;;;;;;;;;;5078458;28;20463;-74
2022/01/30 06:55:03;;;;;;;11.90;4.40;;;;;;;;;;5077318;28;20488;-74
2022/01/30 06:57:42;;;;;;;28.20;6.93;;;;;;;;;;5078474;28;20460;-75
2022/01/30 07:03:00;;;;;;;20.70;5.17;;;;;;;;;;5058659;28;20449;-73
2022/01/30 07:05:39;;;;;;;16.20;4.73;;;;;;;;;;5067780;28;20786;-75
2022/01/30 07:08:14;;;;;;;23.97;5.60;;;;;;;;;;5072448;28;20460;-74
2022/01/30 07:10:42;;;;;;;18.07;4.90;;;;;;;;;;5069606;28;20506;-74
2022/01/30 07:13:12;;;;;;;55.50;15.73;;;;;;;;;;5078965;28;20521;-73
2022/01/30 07:25:07;;;;;;;12.77;4.10;;;;;;;;;;5076294;28;20194;-74
2022/01/30 07:30:38;;;;;;;19.73;5.50;;;;;;;;;;5074852;28;20512;-77
2022/01/30 07:33:11;;;;;;;14.70;3.40;;;;;;;;;;5071092;28;20464;-74
2022/01/30 07:35:52;;;;;;;32.45;13.13;;;;;;;;;;5077818;28;20762;-74
2022/01/30 07:38:35;;;;;;;181.25;72.80;;;;;;;;;;5089063;28;20241;-74
2022/01/30 07:41:03;;;;;;;146.35;56.63;;;;;;;;;;5090474;28;20676;-74
2022/01/30 07:43:33;;;;;;;11.60;3.13;;;;;;;;;;5078060;28;20635;-74
2022/01/30 07:46:06;;;;;;;19.20;3.83;;;;;;;;;;5077702;28;20819;-73
2022/01/30 07:48:38;;;;;;;13.03;3.93;;;;;;;;;;5058472;28;20721;-74
2022/01/30 07:51:07;;;;;;;35.07;5.80;;;;;;;;;;5063915;28;20551;-74
2022/01/30 07:53:39;;;;;;;53.38;31.30;;;;;;;;;;5093159;28;20452;-74
2022/01/30 07:56:13;;;;;;;182.93;65.65;;;;;;;;;;5099590;28;20234;-74
2022/01/30 08:01:39;;;;;;;40.22;15.00;;;;;;;;;;5139491;27;20786;-74
2022/01/30 08:04:07;;;;;;;111.75;43.70;;;;;;;;;;5118470;27;20209;-72
2022/01/30 08:06:52;;;;;;;47.67;28.48;;;;;;;;;;5114601;27;20234;-74
2022/01/30 08:09:20;;;;;;;76.80;37.70;;;;;;;;;;5115249;27;20647;-75
2022/01/30 08:11:48;;;;;;;42.30;28.85;;;;;;;;;;5115046;27;20309;-74
2022/01/30 08:14:42;;;;;;;42.95;26.85;;;;;;;;;;5115505;27;20219;-72
2022/01/30 08:17:11;;;;;;;45.22;29.17;;;;;;;;;;5115642;27;20210;-73
2022/01/30 08:19:47;;;;;;;48.63;32.00;;;;;;;;;;5114795;27;20903;-74
2022/01/30 08:22:21;;;;;;;32.33;26.15;;;;;;;;;;5114549;27;20326;-74
2022/01/30 08:24:56;;;;;;;35.25;26.30;;;;;;;;;;5114350;27;20287;-74
2022/01/30 08:27:28;;;;;;;37.88;27.35;;;;;;;;;;5113943;27;20218;-74
2022/01/30 08:30:01;;;;;;;26.90;23.05;;;;;;;;;;5114785;27;20283;-74
2022/01/30 08:32:30;;;;;;;34.33;25.10;;;;;;;;;;5117522;27;20216;-74
2022/01/30 08:35:06;;;;;;;35.63;26.48;;;;;;;;;;5124115;27;20520;-74
2022/01/30 08:37:42;;;;;;;30.92;25.88;;;;;;;;;;5121731;27;20253;-74
2022/01/30 08:40:24;;;;;;;185.38;56.97;;;;;;;;;;5133272;27;20827;-74
2022/01/30 08:42:51;;;;;;;40.85;10.85;;;;;;;;;;5134531;27;20232;-75
2022/01/30 08:45:20;;;;;;;19.47;3.70;;;;;;;;;;5134130;27;20205;-74
2022/01/30 08:48:05;;;;;;;21.43;6.73;;;;;;;;;;5134141;27;20450;-74
2022/01/30 08:54:09;;;;;;;29.93;6.90;;;;;;;;;;5094701;27;20189;-74
2022/01/30 08:59:58;;;;;;;;;;;;;;;;;;;;;
2022/01/30 09:02:28;;;;;;;26.98;10.48;;;;;;;;;;5089430;27;20482;-74
2022/01/30 09:05:01;;;;;;;23.17;7.13;;;;;;;;;;5104382;27;20207;-75
2022/01/30 09:07:52;;;;;;;39.15;13.07;;;;;;;;;;5098776;27;20969;-74
2022/01/30 09:13:09;;;;;;;35.92;26.38;;;;;;;;;;5042159;27;20225;-73
2022/01/30 09:16:01;;;;;;;45.60;31.63;;;;;;;;;;5099534;27;20228;-75
2022/01/30 09:21:54;;;;;;;15.43;4.10;;;;;;;;;;5058003;28;20263;-74
2022/01/30 09:24:37;;;;;;;12.70;4.22;;;;;;;;;;5078932;28;20463;-74
2022/01/30 09:27:04;;;;;;;18.07;3.33;;;;;;;;;;5078254;28;20206;-74
2022/01/30 09:30:01;;;;;;;;;;;;;;;;;;;;;
2022/01/30 09:32:51;;;;;;;;;;;;;;;;;;;;;
2022/01/30 09:35:42;;;;;;;30.55;25.42;;;;;;;;;;5078652;28;20498;-73
2022/01/30 09:38:14;;;;;;;15.02;13.90;;;;;;;;;;5015150;28;20477;-73
2022/01/30 09:43:30;;;;;;;16.95;15.65;;;;;;;;;;5076707;28;20310;-74
2022/01/30 09:46:05;;;;;;;4.15;3.83;;;;;;;;;;5076975;28;20219;-74
2022/01/30 09:48:44;;;;;;;25.15;22.60;;;;;;;;;;5077459;28;20258;-74
2022/01/30 09:57:01;;;;;;;17.10;5.07;;;;;;;;;;5054344;28;20480;-74
2022/01/30 09:59:31;;;;;;;18.73;5.88;;;;;;;;;;5078498;28;20444;-75
2022/01/30 10:02:07;;;;;;;13.00;12.10;;;;;;;;;;5078886;28;20225;-74
2022/01/30 10:04:37;;;;;;;27.23;15.60;;;;;;;;;;5078613;28;20227;-74
2022/01/30 10:07:14;;;;;;;57.83;31.70;;;;;;;;;;5091196;27;20226;-74
2022/01/30 10:09:46;;;;;;;41.72;28.40;;;;;;;;;;5097431;28;20221;-74
2022/01/30 10:12:20;;;;;;;36.63;25.70;;;;;;;;;;5096049;28;20216;-74
2022/01/30 10:14:57;;;;;;;47.38;29.83;;;;;;;;;;5097069;27;20251;-75
2022/01/30 10:20:36;;;;;;;55.63;30.48;;;;;;;;;;5095459;27;20238;-74
2022/01/30 10:23:17;;;;;;;37.70;27.73;;;;;;;;;;5090047;28;20219;-72
2022/01/30 10:28:53;;;;;;;24.10;21.75;;;;;;;;;;5090824;27;20467;-73
2022/01/30 10:31:26;;;;;;;21.37;5.37;;;;;;;;;;5096112;28;20206;-74
2022/01/30 10:34:01;;;;;;;25.13;5.70;;;;;;;;;;5095876;28;20448;-74
2022/01/30 10:36:34;;;;;;;28.93;5.20;;;;;;;;;;5095742;27;20463;-74
2022/01/30 10:39:06;;;;;;;24.70;6.17;;;;;;;;;;5094809;27;20683;-74
2022/01/30 10:41:37;;;;;;;22.10;6.10;;;;;;;;;;5076135;28;20493;-74
2022/01/30 10:44:05;;;;;;;21.00;4.63;;;;;;;;;;5076983;28;20441;-74
2022/01/30 10:46:36;;;;;;;17.83;4.33;;;;;;;;;;5081471;28;20545;-74
2022/01/30 10:49:04;;;;;;;23.07;4.90;;;;;;;;;;5096820;27;20868;-73
2022/01/30 10:51:33;;;;;;;26.27;5.07;;;;;;;;;;5097795;27;20467;-74
2022/01/30 10:54:05;;;;;;;20.63;4.60;;;;;;;;;;5093538;28;20443;-74
2022/01/30 10:56:35;;;;;;;25.87;6.00;;;;;;;;;;5076946;28;20499;-76
2022/01/30 10:59:10;;;;;;;17.87;4.50;;;;;;;;;;5077605;28;21028;-74
2022/01/30 11:01:37;;;;;;;26.15;23.63;;;;;;;;;;5076603;28;20483;-74
2022/01/30 11:04:06;;;;;;;38.80;27.13;;;;;;;;;;5076949;28;20226;-75
2022/01/30 11:06:39;;;;;;;32.45;26.67;;;;;;;;;;5076308;28;20602;-74
2022/01/30 11:09:11;;;;;;;27.33;24.48;;;;;;;;;;5096213;27;20221;-73
2022/01/30 11:11:39;;;;;;;28.42;24.35;;;;;;;;;;5097161;27;20226;-74
2022/01/30 11:14:34;;;;;;;28.08;25.10;;;;;;;;;;5095728;27;20356;-74
2022/01/30 11:17:08;;;;;;;21.02;19.25;;;;;;;;;;5096614;27;20478;-74
2022/01/30 11:19:51;;;;;;;32.08;28.58;;;;;;;;;;5092707;27;20636;-73
2022/01/30 11:22:22;;;;;;;;;;;;;;;;;;5090066;27;20055;-73
2022/01/30 11:27:47;;;;;;;24.08;21.63;;;;;;;;;;5074497;28;20221;-74
2022/01/30 11:30:15;;;;;;;22.75;20.45;;;;;;;;;;5076041;28;20232;-75
2022/01/30 11:33:25;;;;;;;22.73;20.42;;;;;;;;;;5083766;27;20313;-75
2022/01/30 11:35:54;;;;;;;29.05;24.63;;;;;;;;;;5082522;27;20215;-75
2022/01/30 11:38:29;;;;;;;21.05;19.17;;;;;;;;;;5094349;28;20288;-74
2022/01/30 11:41:17;;;;;;;22.33;20.23;;;;;;;;;;5093576;27;20735;-75
2022/01/30 11:43:59;;;;;;;25.67;23.08;;;;;;;;;;5084995;27;20223;-74
2022/01/30 11:46:26;;;;;;;24.52;22.02;;;;;;;;;;5095397;27;20220;-74
2022/01/30 11:49:08;;;;;;;19.30;5.13;;;;;;;;;;5095064;28;20206;-75
2022/01/30 11:52:02;;;;;;;14.50;4.17;;;;;;;;;;5088487;27;20547;-75
2022/01/30 11:54:37;;;;;;;28.23;4.63;;;;;;;;;;5082038;27;20468;-74
2022/01/30 12:03:24;;;;;;;22.05;3.00;;;;;;;;;;5085574;28;20439;-75
2022/01/30 12:06:20;;;;;;;8.10;2.55;;;;;;;;;;5092205;27;20194;-75
2022/01/30 12:09:00;;;;;;;19.87;4.10;;;;;;;;;;5093169;28;20214;-75
2022/01/30 12:11:52;;;;;;;13.13;3.73;;;;;;;;;;5080957;28;20455;-76
2022/01/30 12:14:54;;;;;;;25.33;5.35;;;;;;;;;;5088059;28;20450;-74
2022/01/30 12:20:25;;;;;;;27.45;23.98;;;;;;;;;;5090394;28;20495;-75
2022/01/30 12:22:57;;;;;;;21.02;19.13;;;;;;;;;;5095628;28;20281;-75
2022/01/30 12:25:25;;;;;;;21.85;20.00;;;;;;;;;;5096291;27;20212;-74
2022/01/30 12:28:05;;;;;;;19.92;18.10;;;;;;;;;;5094987;27;20217;-75
2022/01/30 12:30:44;;;;;;;21.75;19.85;;;;;;;;;;5095758;27;20306;-75
2022/01/30 12:33:38;;;;;;;29.23;7.45;;;;;;;;;;5095178;28;20332;-74
2022/01/30 12:36:13;;;;;;;15.65;4.00;;;;;;;;;;5094476;28;20467;-75
2022/01/30 12:38:40;;;;;;;;;;;;;;;;;;5095599;28;20292;-74
2022/01/30 12:41:15;;;;;;;23.60;5.40;;;;;;;;;;5086291;28;20473;-74
2022/01/30 12:46:27;;;;;;;15.80;3.27;;;;;;;;;;5084758;27;20436;-75
2022/01/30 12:49:39;;;;;;;;;;;;;;;;;;;;;
2022/01/30 12:52:16;;;;;;;28.23;5.77;;;;;;;;;;5093277;27;20481;-75
2022/01/30 12:54:44;;;;;;;22.33;3.87;;;;;;;;;;5100373;27;20467;-74
2022/01/30 12:57:11;;;;;;;25.42;3.75;;;;;;;;;;5100455;27;20548;-74
2022/01/30 12:59:38;;;;;;;16.60;4.30;;;;;;;;;;5084476;27;20749;-74
2022/01/30 13:02:07;;;;;;;14.00;3.10;;;;;;;;;;5097860;27;20940;-74
2022/01/30 13:04:34;;;;;;;16.77;3.73;;;;;;;;;;5098499;27;20914;-74
2022/01/30 13:07:01;;;;;;;18.43;4.23;;;;;;;;;;5098144;27;20467;-74
2022/01/30 13:09:31;;;;;;;27.80;3.95;;;;;;;;;;5098527;27;20454;-74
2022/01/30 13:12:00;;;;;;;16.80;4.30;;;;;;;;;;5086034;28;20297;-74
2022/01/30 13:14:33;;;;;;;12.50;6.83;;;;;;;;;;5079987;28;20460;-74
2022/01/30 13:17:02;;;;;;;14.23;3.27;;;;;;;;;;5090360;27;20843;-74
2022/01/30 13:19:38;;;;;;;15.90;3.70;;;;;;;;;;5077525;28;20456;-75
2022/01/30 13:22:08;;;;;;;24.60;4.67;;;;;;;;;;5078271;28;20462;-74
2022/01/30 13:24:40;;;;;;;33.17;6.97;;;;;;;;;;5076553;28;20441;-74
2022/01/30 13:27:08;;;;;;;18.50;4.60;;;;;;;;;;5078265;28;20452;-74
2022/01/30 13:29:36;;;;;;;19.33;3.30;;;;;;;;;;5077976;28;20739;-74
2022/01/30 13:32:08;;;;;;;9.30;3.50;;;;;;;;;;5071891;28;20476;-74
2022/01/30 13:34:37;;;;;;;19.17;3.20;;;;;;;;;;5057397;28;20213;-74
2022/01/30 13:37:07;;;;;;;12.77;4.30;;;;;;;;;;5069360;28;20459;-74
2022/01/30 13:39:38;;;;;;;19.07;5.00;;;;;;;;;;5059075;28;20870;-74
2022/01/30 13:42:44;;;;;;;21.53;4.00;;;;;;;;;;5064639;28;20476;-74
2022/01/30 13:48:05;;;;;;;12.80;3.20;;;;;;;;;;5075727;28;20802;-74
2022/01/30 13:50:35;;;;;;;12.43;5.20;;;;;;;;;;5067104;28;20465;-74
2022/01/30 13:53:03;;;;;;;7.20;3.33;;;;;;;;;;5057980;28;20442;-74
2022/01/30 13:55:30;;;;;;;9.53;1.63;;;;;;;;;;5057592;28;20453;-74
2022/01/30 13:58:01;;;;;;;6.20;2.23;;;;;;;;;;5058407;28;20553;-74
2022/01/30 14:00:31;;;;;;;11.57;4.87;;;;;;;;;;5058460;28;20523;-74
2022/01/30 14:03:07;;;;;;;10.33;3.10;;;;;;;;;;5064255;28;20448;-74
2022/01/30 14:05:58;;;;;;;20.83;6.93;;;;;;;;;;5077343;28;20912;-74
2022/01/30 14:08:30;;;;;;;12.87;2.23;;;;;;;;;;5078303;28;20444;-74
2022/01/30 14:11:07;;;;;;;7.00;2.30;;;;;;;;;;5077032;28;20518;-74
2022/01/30 14:13:58;;;;;;;20.40;4.97;;;;;;;;;;5081642;27;20941;-74
2022/01/30 14:16:37;;;;;;;8.43;2.60;;;;;;;;;;5078898;28;20513;-74
2022/01/30 14:19:05;;;;;;;6.03;1.10;;;;;;;;;;5078090;28;20457;-73
2022/01/30 14:21:54;;;;;;;14.17;3.57;;;;;;;;;;5078426;28;20499;-74
2022/01/30 14:24:27;;;;;;;12.10;3.00;;;;;;;;;;5066215;28;20459;-74
2022/01/30 14:27:11;;;;;;;15.60;3.20;;;;;;;;;;5078542;28;20445;-74
2022/01/30 14:29:53;;;;;;;181.10;78.10;;;;;;;;;;5077069;28;20479;-74
2022/01/30 14:32:31;;;;;;;140.20;73.10;;;;;;;;;;5072128;28;20601;-74
2022/01/30 14:35:10;;;;;;;33.83;16.67;;;;;;;;;;5061751;28;20456;-75
2022/01/30 14:40:43;;;;;;;14.70;4.37;;;;;;;;;;5052272;28;20912;-74
2022/01/30 14:43:19;;;;;;;15.70;2.67;;;;;;;;;;5057843;28;20465;-75
2022/01/30 14:45:52;;;;;;;14.70;4.60;;;;;;;;;;5057235;28;20440;-75
2022/01/30 14:48:24;;;;;;;10.10;3.27;;;;;;;;;;5076830;28;20457;-75
2022/01/30 14:51:03;;;;;;;9.97;2.77;;;;;;;;;;5077594;28;20459;-75
2022/01/30 14:53:32;;;;;;;8.73;2.83;;;;;;;;;;5075874;28;20461;-74
2022/01/30 14:56:05;;;;;;;10.30;3.50;;;;;;;;;;5076405;28;20467;-75
2022/01/30 14:58:34;;;;;;;23.10;4.90;;;;;;;;;;5076569;28;20456;-74
2022/01/30 15:01:08;;;;;;;12.30;2.83;;;;;;;;;;5076437;28;20542;-75
2022/01/30 15:03:35;;;;;;;9.20;3.47;;;;;;;;;;5078549;28;20456;-74
2022/01/30 15:06:17;;;;;;;47.00;4.60;;;;;;;;;;5079626;28;20491;-75
2022/01/30 15:08:52;;;;;;;16.33;2.93;;;;;;;;;;5078873;28;20520;-74
2022/01/30 15:11:27;;;;;;;10.70;3.00;;;;;;;;;;5078514;28;20532;-74
2022/01/30 15:14:04;;;;;;;15.30;3.40;;;;;;;;;;5078972;28;21078;-74
2022/01/30 15:16:51;;;;;;;12.20;2.67;;;;;;;;;;5078610;28;20456;-75
2022/01/30 15:19:45;;;;;;;14.27;3.23;;;;;;;;;;5079438;28;20838;-74
2022/01/30 15:22:16;;;;;;;15.83;2.00;;;;;;;;;;5081842;28;20467;-74
2022/01/30 15:25:14;;;;;;;7.80;2.60;;;;;;;;;;5081542;28;20456;-74
2022/01/30 15:27:50;;;;;;;13.97;3.50;;;;;;;;;;5060436;28;20465;-76
2022/01/30 15:30:25;;;;;;;23.43;4.57;;;;;;;;;;5059927;28;20472;-75
2022/01/30 15:32:55;;;;;;;18.80;3.47;;;;;;;;;;5061292;28;20760;-74
2022/01/30 15:38:14;;;;;;;22.67;4.33;;;;;;;;;;5080164;28;20513;-74
2022/01/30 15:41:09;;;;;;;10.23;2.77;;;;;;;;;;5080034;28;20484;-74
2022/01/30 15:43:45;;;;;;;16.37;3.67;;;;;;;;;;5073249;28;20477;-74
2022/01/30 15:49:34;;;;;;;20.47;3.47;;;;;;;;;;5059273;28;20463;-75
2022/01/30 15:52:04;;;;;;;20.57;3.93;;;;;;;;;;5060602;28;20473;-74
2022/01/30 15:54:37;;;;;;;23.23;3.50;;;;;;;;;;5055166;28;20449;-74
2022/01/30 15:57:23;;;;;;;;;;;;;;;;;;;;;
2022/01/30 15:59:55;;;;;;;15.33;2.43;;;;;;;;;;5057557;28;20464;-73
2022/01/30 16:05:25;;;;;;;12.63;3.03;;;;;;;;;;4981403;28;20462;-75
2022/01/30 16:07:55;;;;;;;18.20;4.27;;;;;;;;;;5064853;28;20911;-75
2022/01/30 16:10:34;;;;;;;15.30;3.60;;;;;;;;;;5074868;28;20733;-75
2022/01/30 16:16:09;;;;;;;10.33;2.60;;;;;;;;;;5002919;28;20435;-74
2022/01/30 16:18:42;;;;;;;10.33;3.80;;;;;;;;;;5073695;28;20448;-74
2022/01/30 16:21:10;;;;;;;30.27;4.77;;;;;;;;;;5074316;28;20488;-75
2022/01/30 16:23:39;;;;;;;11.20;2.47;;;;;;;;;;5077487;28;20448;-73
2022/01/30 16:26:20;;;;;;;6.50;4.23;;;;;;;;;;5078178;28;20464;-74
2022/01/30 16:28:48;;;;;;;13.53;5.10;;;;;;;;;;5071881;28;20564;-73
2022/01/30 16:31:28;;;;;;;16.00;3.30;;;;;;;;;;5077529;28;20971;-73
2022/01/30 16:34:02;;;;;;;13.40;2.90;;;;;;;;;;5075930;28;20563;-75
2022/01/30 16:36:30;;;;;;;17.77;2.70;;;;;;;;;;5075681;28;20468;-74
2022/01/30 16:38:57;;;;;;;6.67;2.10;;;;;;;;;;5076213;28;20583;-74
2022/01/30 16:41:25;;;;;;;14.27;3.70;;;;;;;;;;5075829;28;20479;-73
2022/01/30 16:43:55;;;;;;;11.50;2.20;;;;;;;;;;5075534;28;20526;-74
2022/01/30 16:46:44;;;;;;;9.10;2.40;;;;;;;;;;5077199;28;20449;-74
2022/01/30 16:49:42;;;;;;;16.30;3.00;;;;;;;;;;5077868;28;20706;-73
2022/01/30 16:52:22;;;;;;;11.03;3.50;;;;;;;;;;5076059;28;20444;-75
2022/01/30 16:54:54;;;;;;;10.60;2.30;;;;;;;;;;5077510;28;20460;-74
2022/01/30 17:00:24;;;;;;;13.30;3.30;;;;;;;;;;5062359;28;20486;-74
2022/01/30 17:02:51;;;;;;;16.47;3.10;;;;;;;;;;5078049;28;20464;-75
2022/01/30 17:05:18;;;;;;;4.77;2.30;;;;;;;;;;5078183;28;20436;-74